Terminal Aerodrome Forecast
Issued by NWS

Home | Current Version | Previous Version | Text Only | Print | Product List | Glossary On
Versions: 1 2 3 4 5 6 7 8 9 10 11 12 13 14 15 16
000
FTUS46 KPDT 212300
TAFYKM
TAF
KYKM 212320Z 2200/2224 11005KT P6SM SCT250
     FM220300 26007KT P6SM SCT150 BKN250
     FM221000 28007KT P6SM BKN150 BKN200
     FM221400 28007KT P6SM OVC140=

USA.gov is the U.S. government's official web portal to all federal, state and local government web resources and services.